Time,TemperatureF,DewpointF,PressureIn,WindDirection,WindDirectionDegrees,WindSpeedMPH,WindSpeedGustMPH,Humidity,HourlyPrecipIn,Conditions,Clouds,dailyrainin,SoftwareType,DateUTC
2013-03-31 01:14:00,32.9,31.8,30.08,North,4,1.8,2.6,95,0.00,n/a,n/a,-99.99,Henriksen +1-Wire,2013-03-31 05:14:00,
2013-03-31 01:16:00,32.8,31.7,30.08,North,2,1.8,2.6,95,0.00,n/a,n/a,-99.99,Henriksen +1-Wire,2013-03-31 05:16:00,
2013-03-31 01:18:00,32.8,31.7,30.08,North,1,1.7,2.6,95,0.00,n/a,n/a,-99.99,Henriksen +1-Wire,2013-03-31 05:18:00,
2013-03-31 01:22:00,32.7,31.6,30.08,North,10,1.8,2.8,95,0.00,n/a,n/a,-99.99,Henriksen +1-Wire,2013-03-31 05:22:00,
2013-03-31 03:27:00,31.7,29.2,30.07,North,1,2.4,3.1,90,0.00,n/a,n/a,-99.99,Henriksen +1-Wire,2013-03-31 07:27:00,
2013-03-31 03:32:00,31.2,28.6,30.07,NNE,26,2.1,3.2,90,0.00,n/a,n/a,-99.99,Henriksen +1-Wire,2013-03-31 07:32:00,
2013-03-31 05:37:00,30.5,28.5,30.07,North,356,1.7,3.2,92,0.00,n/a,n/a,-99.99,Henriksen +1-Wire,2013-03-31 09:37:00,
2013-03-31 05:43:00,30.7,28.8,30.08,North,4,2.0,2.6,92,0.00,n/a,n/a,-99.99,Henriksen +1-Wire,2013-03-31 09:43:00,
2013-03-31 05:48:00,30.7,28.9,30.08,North,1,1.7,2.4,92,0.00,n/a,n/a,-99.99,Henriksen +1-Wire,2013-03-31 09:48:00,
2013-03-31 05:53:00,30.8,28.9,30.08,North,3,2.2,2.5,92,0.00,n/a,n/a,-99.99,Henriksen +1-Wire,2013-03-31 09:53:00,
2013-03-31 05:58:00,30.8,28.9,30.08,North,1,1.8,2.5,92,0.00,n/a,n/a,-99.99,Henriksen +1-Wire,2013-03-31 09:58:00,
2013-03-31 06:03:00,30.5,28.7,30.08,North,4,1.4,2.4,92,0.00,n/a,n/a,-99.99,Henriksen +1-Wire,2013-03-31 10:03:00,
2013-03-31 08:07:00,34.4,29.3,30.09,NNE,18,1.1,2.4,81,0.00,n/a,n/a,-99.99,Henriksen +1-Wire,2013-03-31 12:07:00,
2013-03-31 10:12:00,46.8,26.2,30.07,SSW,206,3.9,6.5,44,0.00,n/a,n/a,-99.99,Henriksen +1-Wire,2013-03-31 14:12:00,
2013-03-31 10:17:00,46.6,25.9,30.07,SSW,210,3.5,6.3,44,0.00,n/a,n/a,-99.99,Henriksen +1-Wire,2013-03-31 14:17:00,
2013-03-31 12:22:00,46.8,36.8,30.05,SSW,196,5.1,8.7,67,0.00,n/a,n/a,-99.99,Henriksen +1-Wire,2013-03-31 16:22:00,
2013-03-31 14:27:00,48.3,38.1,29.99,SSW,194,5.2,7.9,67,0.00,n/a,n/a,-99.99,Henriksen +1-Wire,2013-03-31 18:27:00,
2013-03-31 16:32:00,46.6,39.3,29.93,SSW,205,3.8,8.0,75,0.00,n/a,n/a,-99.99,Henriksen +1-Wire,2013-03-31 20:32:00,
2013-03-31 16:37:00,46.6,39.3,29.93,SSW,208,6.3,11.1,75,0.00,n/a,n/a,-99.99,Henriksen +1-Wire,2013-03-31 20:37:00,
2013-03-31 16:42:00,46.5,39.4,29.93,SSW,194,5.7,11.1,75,0.00,n/a,n/a,-99.99,Henriksen +1-Wire,2013-03-31 20:42:00,
2013-03-31 16:48:00,46.4,39.3,29.92,SSW,195,6.8,11.9,75,0.00,n/a,n/a,-99.99,Henriksen +1-Wire,2013-03-31 20:48:00,
2013-03-31 16:53:00,46.4,39.3,29.92,SSW,192,6.1,11.9,76,0.00,n/a,n/a,-99.99,Henriksen +1-Wire,2013-03-31 20:53:00,
2013-03-31 16:58:00,46.2,39.3,29.92,SSW,202,5.2,10.3,76,0.00,n/a,n/a,-99.99,Henriksen +1-Wire,2013-03-31 20:58:00,
2013-03-31 17:03:00,46.1,39.2,29.91,SSW,198,5.6,9.7,76,0.00,n/a,n/a,-99.99,Henriksen +1-Wire,2013-03-31 21:03:00,
2013-03-31 17:08:00,46.0,39.2,29.91,SSW,206,6.6,11.8,77,0.00,n/a,n/a,-99.99,Henriksen +1-Wire,2013-03-31 21:08:00,
2013-03-31 17:14:00,46.0,39.2,29.91,SW,215,5.1,11.8,77,0.00,n/a,n/a,-99.99,Henriksen +1-Wire,2013-03-31 21:14:00,
2013-03-31 17:20:00,46.1,39.3,29.91,SW,215,5.4,10.3,77,0.00,n/a,n/a,-99.99,Henriksen +1-Wire,2013-03-31 21:20:00,
2013-03-31 19:22:00,48.6,35.4,29.90,SW,220,8.3,15.2,59,0.00,n/a,n/a,-99.99,Henriksen +1-Wire,2013-03-31 23:22:00,
2013-03-31 19:27:00,48.6,35.6,29.90,SW,224,7.2,14.3,60,0.00,n/a,n/a,-99.99,Henriksen +1-Wire,2013-03-31 23:27:00,
2013-03-31 21:32:00,45.0,39.7,29.89,SSW,206,7.4,14.3,81,0.00,n/a,n/a,-99.99,Henriksen +1-Wire,2013-04-01 01:32:00,
2013-03-31 23:37:00,43.4,39.5,29.80,SSW,200,4.0,7.9,85,0.00,n/a,n/a,-99.99,Henriksen +1-Wire,2013-04-01 03:37:00,